sensor_id;sensor_type;location;lat;lon;timestamp;pressure;altitude;pressure_sealevel;temperature;humidity
10310;BME280;5200;43.236;27.986;2023-04-25T00:00:44;99494.00;;;10.32;100.00
10310;BME280;5200;43.236;27.986;2023-04-25T00:03:13;99505.31;;;10.42;100.00
10310;BME280;5200;43.236;27.986;2023-04-25T00:05:40;99506.25;;;10.41;100.00
10310;BME280;5200;43.236;27.986;2023-04-25T00:08:07;99482.97;;;10.28;100.00
10310;BME280;5200;43.236;27.986;2023-04-25T00:10:33;99497.69;;;10.39;100.00
10310;BME280;5200;43.236;27.986;2023-04-25T00:13:00;99495.50;;;10.34;100.00
10310;BME280;5200;43.236;27.986;2023-04-25T00:15:28;99488.22;;;10.28;100.00
10310;BME280;5200;43.236;27.986;2023-04-25T00:17:56;99469.44;;;10.13;100.00
10310;BME280;5200;43.236;27.986;2023-04-25T00:20:24;99488.63;;;10.24;100.00
10310;BME280;5200;43.236;27.986;2023-04-25T00:22:51;99490.44;;;10.23;100.00
10310;BME280;5200;43.236;27.986;2023-04-25T00:25:19;99490.97;;;10.27;100.00
10310;BME280;5200;43.236;27.986;2023-04-25T00:27:45;99486.41;;;10.29;100.00
10310;BME280;5200;43.236;27.986;2023-04-25T00:30:13;99484.34;;;10.32;100.00
10310;BME280;5200;43.236;27.986;2023-04-25T00:32:40;99474.09;;;10.29;100.00
10310;BME280;5200;43.236;27.986;2023-04-25T00:35:08;99470.06;;;10.35;100.00
10310;BME280;5200;43.236;27.986;2023-04-25T00:37:36;99463.72;;;10.28;100.00
10310;BME280;5200;43.236;27.986;2023-04-25T00:40:05;99457.88;;;10.34;100.00
10310;BME280;5200;43.236;27.986;2023-04-25T00:42:33;99461.19;;;10.36;100.00
10310;BME280;5200;43.236;27.986;2023-04-25T00:45:01;99456.22;;;10.33;100.00
10310;BME280;5200;43.236;27.986;2023-04-25T00:47:31;99426.44;;;10.14;100.00
10310;BME280;5200;43.236;27.986;2023-04-25T00:49:59;99453.78;;;10.22;100.00
10310;BME280;5200;43.236;27.986;2023-04-25T00:52:25;99457.44;;;10.11;100.00
10310;BME280;5200;43.236;27.986;2023-04-25T00:54:54;99464.19;;;10.13;100.00
10310;BME280;5200;43.236;27.986;2023-04-25T00:57:21;99446.41;;;10.07;100.00
10310;BME280;5200;43.236;27.986;2023-04-25T00:59:48;99456.63;;;10.10;100.00
10310;BME280;5200;43.236;27.986;2023-04-25T01:02:17;99448.72;;;10.10;100.00
10310;BME280;5200;43.236;27.986;2023-04-25T01:04:44;99417.38;;;9.99;100.00
10310;BME280;5200;43.236;27.986;2023-04-25T01:07:11;99433.50;;;10.14;100.00
10310;BME280;5200;43.236;27.986;2023-04-25T01:09:38;99438.69;;;10.24;100.00
10310;BME280;5200;43.236;27.986;2023-04-25T01:12:07;99438.00;;;10.22;100.00
10310;BME280;5200;43.236;27.986;2023-04-25T01:14:34;99434.09;;;10.26;100.00
10310;BME280;5200;43.236;27.986;2023-04-25T01:17:01;99427.88;;;10.27;100.00
10310;BME280;5200;43.236;27.986;2023-04-25T01:19:28;99429.31;;;10.21;100.00
10310;BME280;5200;43.236;27.986;2023-04-25T01:21:57;99414.22;;;10.23;100.00
10310;BME280;5200;43.236;27.986;2023-04-25T01:24:24;99395.19;;;10.11;100.00
10310;BME280;5200;43.236;27.986;2023-04-25T01:26:51;99392.16;;;10.06;100.00
10310;BME280;5200;43.236;27.986;2023-04-25T01:29:18;99419.22;;;10.16;100.00
10310;BME280;5200;43.236;27.986;2023-04-25T01:31:46;99418.53;;;10.14;100.00
10310;BME280;5200;43.236;27.986;2023-04-25T01:34:13;99407.13;;;10.06;100.00
10310;BME280;5200;43.236;27.986;2023-04-25T01:36:40;99388.94;;;9.94;100.00
10310;BME280;5200;43.236;27.986;2023-04-25T01:39:09;99400.28;;;9.95;100.00
10310;BME280;5200;43.236;27.986;2023-04-25T01:41:36;99410.88;;;10.03;100.00
10310;BME280;5200;43.236;27.986;2023-04-25T01:44:03;99414.75;;;9.99;100.00
10310;BME280;5200;43.236;27.986;2023-04-25T01:46:31;99410.50;;;9.98;100.00
10310;BME280;5200;43.236;27.986;2023-04-25T01:48:58;99381.78;;;9.87;100.00
10310;BME280;5200;43.236;27.986;2023-04-25T01:51:24;99388.66;;;9.98;100.00
10310;BME280;5200;43.236;27.986;2023-04-25T01:53:52;99399.47;;;10.12;100.00
10310;BME280;5200;43.236;27.986;2023-04-25T01:56:20;99365.81;;;9.98;100.00
10310;BME280;5200;43.236;27.986;2023-04-25T01:58:47;99363.19;;;9.98;100.00
10310;BME280;5200;43.236;27.986;2023-04-25T02:01:13;99390.59;;;10.13;100.00
10310;BME280;5200;43.236;27.986;2023-04-25T02:03:40;99374.44;;;10.08;100.00
10310;BME280;5200;43.236;27.986;2023-04-25T02:06:07;99352.69;;;9.98;100.00
10310;BME280;5200;43.236;27.986;2023-04-25T02:08:34;99372.06;;;10.15;100.00
10310;BME280;5200;43.236;27.986;2023-04-25T02:11:02;99377.00;;;10.18;100.00
10310;BME280;5200;43.236;27.986;2023-04-25T02:13:30;99341.28;;;10.07;100.00
10310;BME280;5200;43.236;27.986;2023-04-25T02:15:57;99367.13;;;10.30;100.00
10310;BME280;5200;43.236;27.986;2023-04-25T02:18:24;99371.56;;;10.29;100.00
10310;BME280;5200;43.236;27.986;2023-04-25T02:20:51;99368.91;;;10.29;100.00
10310;BME280;5200;43.236;27.986;2023-04-25T02:23:18;99367.66;;;10.33;100.00
10310;BME280;5200;43.236;27.986;2023-04-25T02:25:45;99373.38;;;10.29;100.00
10310;BME280;5200;43.236;27.986;2023-04-25T02:28:12;99371.81;;;10.26;100.00
10310;BME280;5200;43.236;27.986;2023-04-25T02:30:40;99365.75;;;10.26;100.00
10310;BME280;5200;43.236;27.986;2023-04-25T02:33:07;99332.63;;;10.15;100.00
10310;BME280;5200;43.236;27.986;2023-04-25T02:35:34;99346.34;;;10.27;100.00
10310;BME280;5200;43.236;27.986;2023-04-25T02:38:00;99303.13;;;10.03;100.00
10310;BME280;5200;43.236;27.986;2023-04-25T02:40:27;99338.94;;;10.22;100.00
10310;BME280;5200;43.236;27.986;2023-04-25T02:42:54;99337.78;;;10.25;100.00
10310;BME280;5200;43.236;27.986;2023-04-25T02:45:21;99323.97;;;10.23;100.00
10310;BME280;5200;43.236;27.986;2023-04-25T02:47:49;99334.28;;;10.34;100.00
10310;BME280;5200;43.236;27.986;2023-04-25T02:50:16;99303.25;;;10.20;100.00
10310;BME280;5200;43.236;27.986;2023-04-25T02:52:44;99340.09;;;10.38;100.00
10310;BME280;5200;43.236;27.986;2023-04-25T02:55:11;99306.25;;;10.25;100.00
10310;BME280;5200;43.236;27.986;2023-04-25T02:57:38;99312.88;;;10.29;100.00
10310;BME280;5200;43.236;27.986;2023-04-25T03:00:06;99304.53;;;10.33;100.00
10310;BME280;5200;43.236;27.986;2023-04-25T03:02:33;99321.25;;;10.50;100.00
10310;BME280;5200;43.236;27.986;2023-04-25T03:05:02;99332.44;;;10.52;100.00
10310;BME280;5200;43.236;27.986;2023-04-25T03:07:28;99303.72;;;10.33;100.00
10310;BME280;5200;43.236;27.986;2023-04-25T03:09:55;99305.28;;;10.26;100.00
10310;BME280;5200;43.236;27.986;2023-04-25T03:12:22;99311.22;;;10.28;100.00
10310;BME280;5200;43.236;27.986;2023-04-25T03:14:49;99329.69;;;10.36;100.00
10310;BME280;5200;43.236;27.986;2023-04-25T03:17:15;99326.72;;;10.31;100.00
10310;BME280;5200;43.236;27.986;2023-04-25T03:19:43;99306.56;;;10.22;100.00
10310;BME280;5200;43.236;27.986;2023-04-25T03:22:11;99323.41;;;10.29;100.00
10310;BME280;5200;43.236;27.986;2023-04-25T03:24:38;99323.09;;;10.32;100.00
10310;BME280;5200;43.236;27.986;2023-04-25T03:27:05;99301.63;;;10.19;100.00
10310;BME280;5200;43.236;27.986;2023-04-25T03:29:32;99289.66;;;10.24;100.00
10310;BME280;5200;43.236;27.986;2023-04-25T03:31:59;99316.63;;;10.44;100.00
10310;BME280;5200;43.236;27.986;2023-04-25T03:34:25;99310.53;;;10.44;100.00
10310;BME280;5200;43.236;27.986;2023-04-25T03:36:53;99323.13;;;10.58;100.00
10310;BME280;5200;43.236;27.986;2023-04-25T03:39:21;99320.34;;;10.60;100.00
10310;BME280;5200;43.236;27.986;2023-04-25T03:41:48;99316.78;;;10.69;100.00
10310;BME280;5200;43.236;27.986;2023-04-25T03:44:15;99314.50;;;10.74;100.00
10310;BME280;5200;43.236;27.986;2023-04-25T03:46:42;99316.81;;;10.77;100.00
10310;BME280;5200;43.236;27.986;2023-04-25T03:49:08;99300.84;;;10.70;100.00
10310;BME280;5200;43.236;27.986;2023-04-25T03:51:35;99287.59;;;10.80;100.00
10310;BME280;5200;43.236;27.986;2023-04-25T03:54:02;99315.94;;;10.94;100.00
10310;BME280;5200;43.236;27.986;2023-04-25T03:56:31;99324.16;;;10.91;100.00
10310;BME280;5200;43.236;27.986;2023-04-25T03:58:58;99297.91;;;10.73;100.00
10310;BME280;5200;43.236;27.986;2023-04-25T04:01:24;99290.81;;;10.74;100.00
10310;BME280;5200;43.236;27.986;2023-04-25T04:03:51;99301.28;;;10.92;100.00
10310;BME280;5200;43.236;27.986;2023-04-25T04:06:18;99306.56;;;11.00;100.00
10310;BME280;5200;43.236;27.986;2023-04-25T04:08:46;99286.91;;;10.78;100.00
10310;BME280;5200;43.236;27.986;2023-04-25T04:11:12;99305.88;;;10.90;100.00
10310;BME280;5200;43.236;27.986;2023-04-25T04:13:41;99311.63;;;10.93;100.00
10310;BME280;5200;43.236;27.986;2023-04-25T04:16:08;99286.09;;;10.77;100.00
10310;BME280;5200;43.236;27.986;2023-04-25T04:18:35;99292.88;;;10.88;100.00
10310;BME280;5200;43.236;27.986;2023-04-25T04:21:01;99283.22;;;11.05;100.00
10310;BME280;5200;43.236;27.986;2023-04-25T04:23:28;99301.34;;;11.59;100.00
10310;BME280;5200;43.236;27.986;2023-04-25T04:25:55;99288.91;;;11.85;100.00
10310;BME280;5200;43.236;27.986;2023-04-25T04:28:22;99285.31;;;12.19;100.00
10310;BME280;5200;43.236;27.986;2023-04-25T04:30:52;99296.63;;;12.69;100.00
10310;BME280;5200;43.236;27.986;2023-04-25T04:33:18;99303.88;;;13.23;100.00
10310;BME280;5200;43.236;27.986;2023-04-25T04:35:45;99297.41;;;13.65;100.00
10310;BME280;5200;43.236;27.986;2023-04-25T04:38:13;99265.69;;;13.88;100.00
10310;BME280;5200;43.236;27.986;2023-04-25T04:40:41;99274.88;;;14.15;100.00
10310;BME280;5200;43.236;27.986;2023-04-25T04:43:08;99294.16;;;14.24;100.00
10310;BME280;5200;43.236;27.986;2023-04-25T04:45:36;99291.50;;;14.09;100.00
10310;BME280;5200;43.236;27.986;2023-04-25T04:48:05;99292.84;;;14.05;100.00
10310;BME280;5200;43.236;27.986;2023-04-25T04:50:32;99265.75;;;14.03;100.00
10310;BME280;5200;43.236;27.986;2023-04-25T04:52:59;99299.38;;;14.55;100.00
10310;BME280;5200;43.236;27.986;2023-04-25T04:55:26;99290.97;;;15.11;100.00
10310;BME280;5200;43.236;27.986;2023-04-25T04:57:53;99287.84;;;15.37;100.00
10310;BME280;5200;43.236;27.986;2023-04-25T05:00:20;99274.34;;;15.53;100.00
10310;BME280;5200;43.236;27.986;2023-04-25T05:02:47;99273.47;;;15.68;100.00
10310;BME280;5200;43.236;27.986;2023-04-25T05:05:15;99289.97;;;15.99;100.00
10310;BME280;5200;43.236;27.986;2023-04-25T05:07:42;99281.81;;;16.29;100.00
10310;BME280;5200;43.236;27.986;2023-04-25T05:10:09;99284.72;;;16.62;100.00
10310;BME280;5200;43.236;27.986;2023-04-25T05:12:36;99266.59;;;17.01;100.00
10310;BME280;5200;43.236;27.986;2023-04-25T05:15:03;99277.56;;;17.39;100.00
10310;BME280;5200;43.236;27.986;2023-04-25T05:17:30;99266.34;;;17.44;100.00
10310;BME280;5200;43.236;27.986;2023-04-25T05:19:58;99280.69;;;17.56;100.00
10310;BME280;5200;43.236;27.986;2023-04-25T05:22:26;99279.88;;;17.62;100.00
10310;BME280;5200;43.236;27.986;2023-04-25T05:24:53;99273.72;;;17.55;100.00
10310;BME280;5200;43.236;27.986;2023-04-25T05:27:20;99280.84;;;17.41;100.00
10310;BME280;5200;43.236;27.986;2023-04-25T05:29:47;99273.31;;;17.58;100.00
10310;BME280;5200;43.236;27.986;2023-04-25T05:32:13;99273.09;;;17.53;100.00
10310;BME280;5200;43.236;27.986;2023-04-25T05:34:40;99239.59;;;17.04;100.00
10310;BME280;5200;43.236;27.986;2023-04-25T05:37:07;99270.13;;;17.15;100.00
10310;BME280;5200;43.236;27.986;2023-04-25T05:39:35;99249.38;;;16.97;100.00
10310;BME280;5200;43.236;27.986;2023-04-25T05:42:02;99252.25;;;17.02;100.00
10310;BME280;5200;43.236;27.986;2023-04-25T05:44:30;99260.53;;;17.20;100.00
10310;BME280;5200;43.236;27.986;2023-04-25T05:46:57;99256.69;;;17.36;100.00
10310;BME280;5200;43.236;27.986;2023-04-25T05:49:24;99227.91;;;17.53;100.00
10310;BME280;5200;43.236;27.986;2023-04-25T05:51:50;99230.81;;;17.78;97.72
10310;BME280;5200;43.236;27.986;2023-04-25T05:54:17;99227.16;;;17.86;95.57
10310;BME280;5200;43.236;27.986;2023-04-25T05:56:45;99211.97;;;17.60;83.99
10310;BME280;5200;43.236;27.986;2023-04-25T05:59:12;99242.44;;;17.70;83.00
10310;BME280;5200;43.236;27.986;2023-04-25T06:01:39;99237.69;;;17.46;83.57
10310;BME280;5200;43.236;27.986;2023-04-25T06:04:06;99234.63;;;17.49;84.82
10310;BME280;5200;43.236;27.986;2023-04-25T06:06:33;99224.66;;;17.71;82.69
10310;BME280;5200;43.236;27.986;2023-04-25T06:09:00;99236.59;;;18.02;81.32
10310;BME280;5200;43.236;27.986;2023-04-25T06:11:27;99224.28;;;18.21;79.43
10310;BME280;5200;43.236;27.986;2023-04-25T06:13:55;99239.00;;;18.50;78.67
10310;BME280;5200;43.236;27.986;2023-04-25T06:16:21;99233.41;;;18.65;76.89
10310;BME280;5200;43.236;27.986;2023-04-25T06:18:51;99212.78;;;18.40;76.51
10310;BME280;5200;43.236;27.986;2023-04-25T06:21:17;99231.25;;;18.35;77.78
10310;BME280;5200;43.236;27.986;2023-04-25T06:23:44;99226.31;;;18.32;77.88
10310;BME280;5200;43.236;27.986;2023-04-25T06:26:11;99230.81;;;18.25;78.04
10310;BME280;5200;43.236;27.986;2023-04-25T06:28:38;99212.22;;;18.11;78.61
10310;BME280;5200;43.236;27.986;2023-04-25T06:31:06;99227.56;;;18.09;77.40
10310;BME280;5200;43.236;27.986;2023-04-25T06:33:33;99225.50;;;17.85;78.43
10310;BME280;5200;43.236;27.986;2023-04-25T06:35:59;99205.41;;;17.62;79.27
10310;BME280;5200;43.236;27.986;2023-04-25T06:38:26;99213.78;;;17.66;79.80
10310;BME280;5200;43.236;27.986;2023-04-25T06:40:53;99213.81;;;17.59;78.56
10310;BME280;5200;43.236;27.986;2023-04-25T06:43:20;99207.22;;;17.48;78.52
10310;BME280;5200;43.236;27.986;2023-04-25T06:45:47;99223.19;;;17.48;79.73
10310;BME280;5200;43.236;27.986;2023-04-25T06:48:15;99220.50;;;17.42;81.57
10310;BME280;5200;43.236;27.986;2023-04-25T06:50:42;99221.91;;;17.38;80.74
10310;BME280;5200;43.236;27.986;2023-04-25T06:53:08;99217.97;;;17.14;81.94
10310;BME280;5200;43.236;27.986;2023-04-25T06:55:36;99218.53;;;17.02;83.14
10310;BME280;5200;43.236;27.986;2023-04-25T06:58:03;99221.13;;;16.82;82.78
10310;BME280;5200;43.236;27.986;2023-04-25T07:00:30;99225.56;;;16.75;83.56
10310;BME280;5200;43.236;27.986;2023-04-25T07:02:57;99217.06;;;16.86;83.21
10310;BME280;5200;43.236;27.986;2023-04-25T07:05:25;99215.50;;;17.05;83.81
10310;BME280;5200;43.236;27.986;2023-04-25T07:07:52;99216.41;;;17.39;81.44
10310;BME280;5200;43.236;27.986;2023-04-25T07:10:19;99217.69;;;17.77;80.29
10310;BME280;5200;43.236;27.986;2023-04-25T07:12:46;99215.06;;;18.03;79.64
10310;BME280;5200;43.236;27.986;2023-04-25T07:15:13;99211.13;;;18.52;78.29
10310;BME280;5200;43.236;27.986;2023-04-25T07:17:40;99197.78;;;18.79;75.61
10310;BME280;5200;43.236;27.986;2023-04-25T07:20:08;99202.03;;;18.87;nan
10310;BME280;5200;43.236;27.986;2023-04-25T07:22:36;99203.81;;;18.99;72.24
10310;BME280;5200;43.236;27.986;2023-04-25T07:25:04;99201.88;;;19.20;71.68
10310;BME280;5200;43.236;27.986;2023-04-25T07:27:31;99189.75;;;19.24;69.88
10310;BME280;5200;43.236;27.986;2023-04-25T07:29:58;99206.53;;;19.31;69.55
10310;BME280;5200;43.236;27.986;2023-04-25T07:32:25;99199.56;;;19.30;67.73
10310;BME280;5200;43.236;27.986;2023-04-25T07:34:52;99196.69;;;19.32;67.46
10310;BME280;5200;43.236;27.986;2023-04-25T07:37:19;99192.97;;;19.33;65.04
10310;BME280;5200;43.236;27.986;2023-04-25T07:39:47;99183.34;;;19.32;65.04
10310;BME280;5200;43.236;27.986;2023-04-25T07:42:14;99178.72;;;19.52;64.67
10310;BME280;5200;43.236;27.986;2023-04-25T07:44:40;99180.28;;;19.60;63.06
10310;BME280;5200;43.236;27.986;2023-04-25T07:47:08;99171.19;;;19.68;64.18
10310;BME280;5200;43.236;27.986;2023-04-25T07:49:35;99175.66;;;19.80;63.80
10310;BME280;5200;43.236;27.986;2023-04-25T07:52:03;99182.81;;;20.05;61.84
10310;BME280;5200;43.236;27.986;2023-04-25T07:54:31;99181.50;;;20.14;60.05
10310;BME280;5200;43.236;27.986;2023-04-25T07:56:59;99173.66;;;20.19;59.46
10310;BME280;5200;43.236;27.986;2023-04-25T07:59:27;99170.84;;;20.14;60.87
10310;BME280;5200;43.236;27.986;2023-04-25T08:01:54;99174.78;;;19.87;61.22
10310;BME280;5200;43.236;27.986;2023-04-25T08:04:22;99163.59;;;19.39;63.21
10310;BME280;5200;43.236;27.986;2023-04-25T08:06:49;99172.00;;;19.05;64.94
10310;BME280;5200;43.236;27.986;2023-04-25T08:09:16;99179.13;;;18.79;66.21
10310;BME280;5200;43.236;27.986;2023-04-25T08:11:43;99187.72;;;18.68;65.57
10310;BME280;5200;43.236;27.986;2023-04-25T08:14:11;99184.66;;;18.57;66.01
10310;BME280;5200;43.236;27.986;2023-04-25T08:16:38;99186.16;;;18.40;65.64
10310;BME280;5200;43.236;27.986;2023-04-25T08:19:05;99191.13;;;18.16;67.28
10310;BME280;5200;43.236;27.986;2023-04-25T08:21:32;99205.47;;;18.02;67.50
10310;BME280;5200;43.236;27.986;2023-04-25T08:23:59;99211.97;;;17.80;69.99
10310;BME280;5200;43.236;27.986;2023-04-25T08:26:26;99208.44;;;17.46;73.07
10310;BME280;5200;43.236;27.986;2023-04-25T08:28:52;99189.34;;;17.16;71.43
10310;BME280;5200;43.236;27.986;2023-04-25T08:31:20;99191.75;;;16.97;74.01
10310;BME280;5200;43.236;27.986;2023-04-25T08:33:47;99209.34;;;17.05;74.46
10310;BME280;5200;43.236;27.986;2023-04-25T08:36:15;99199.38;;;17.20;72.91
10310;BME280;5200;43.236;27.986;2023-04-25T08:38:43;99206.56;;;17.26;72.85
10310;BME280;5200;43.236;27.986;2023-04-25T08:41:11;99204.13;;;17.31;72.34
10310;BME280;5200;43.236;27.986;2023-04-25T08:43:42;99203.75;;;17.48;72.61
10310;BME280;5200;43.236;27.986;2023-04-25T08:46:08;99198.84;;;17.51;69.57
10310;BME280;5200;43.236;27.986;2023-04-25T08:48:37;99194.94;;;17.41;70.18
10310;BME280;5200;43.236;27.986;2023-04-25T08:51:07;99193.88;;;17.28;69.85
10310;BME280;5200;43.236;27.986;2023-04-25T08:53:34;99198.78;;;17.25;69.48
10310;BME280;5200;43.236;27.986;2023-04-25T08:56:01;99202.47;;;17.17;70.74
10310;BME280;5200;43.236;27.986;2023-04-25T08:58:28;99190.16;;;17.09;71.64
10310;BME280;5200;43.236;27.986;2023-04-25T09:00:55;99203.66;;;17.08;71.43
10310;BME280;5200;43.236;27.986;2023-04-25T09:03:22;99207.72;;;17.04;71.48
10310;BME280;5200;43.236;27.986;2023-04-25T09:05:51;99205.28;;;17.09;70.32
10310;BME280;5200;43.236;27.986;2023-04-25T09:08:18;99185.78;;;16.88;70.50
10310;BME280;5200;43.236;27.986;2023-04-25T09:10:44;99191.38;;;17.07;68.99
10310;BME280;5200;43.236;27.986;2023-04-25T09:13:13;99177.03;;;16.95;68.99
10310;BME280;5200;43.236;27.986;2023-04-25T09:15:48;99178.31;;;17.12;68.77
10310;BME280;5200;43.236;27.986;2023-04-25T09:18:22;99191.03;;;17.37;68.54
10310;BME280;5200;43.236;27.986;2023-04-25T09:20:52;99186.13;;;17.33;67.84
10310;BME280;5200;43.236;27.986;2023-04-25T09:23:20;99179.53;;;17.16;68.28
10310;BME280;5200;43.236;27.986;2023-04-25T09:25:48;99166.00;;;17.04;67.72
10310;BME280;5200;43.236;27.986;2023-04-25T09:28:15;99182.19;;;17.03;68.71
10310;BME280;5200;43.236;27.986;2023-04-25T09:30:42;99177.84;;;16.95;69.68
10310;BME280;5200;43.236;27.986;2023-04-25T09:33:10;99185.47;;;17.18;69.71
10310;BME280;5200;43.236;27.986;2023-04-25T09:35:38;99159.06;;;17.03;69.22
10310;BME280;5200;43.236;27.986;2023-04-25T09:38:11;99172.00;;;17.26;69.61
10310;BME280;5200;43.236;27.986;2023-04-25T09:40:42;99159.97;;;17.44;69.58
10310;BME280;5200;43.236;27.986;2023-04-25T09:43:10;99164.69;;;17.55;69.07
10310;BME280;5200;43.236;27.986;2023-04-25T09:45:41;99159.56;;;17.60;68.77
10310;BME280;5200;43.236;27.986;2023-04-25T09:48:11;99134.81;;;17.73;68.86
10310;BME280;5200;43.236;27.986;2023-04-25T09:50:38;99154.09;;;17.95;68.20
10310;BME280;5200;43.236;27.986;2023-04-25T09:53:06;99143.00;;;17.85;67.84
10310;BME280;5200;43.236;27.986;2023-04-25T09:55:36;99150.41;;;17.83;68.21
10310;BME280;5200;43.236;27.986;2023-04-25T09:58:05;99148.13;;;17.66;68.68
10310;BME280;5200;43.236;27.986;2023-04-25T10:00:33;99150.38;;;17.69;69.24
10310;BME280;5200;43.236;27.986;2023-04-25T10:03:01;99156.31;;;17.71;69.18
10310;BME280;5200;43.236;27.986;2023-04-25T10:05:30;99136.06;;;17.84;69.80
10310;BME280;5200;43.236;27.986;2023-04-25T10:07:59;99142.78;;;17.80;69.98
10310;BME280;5200;43.236;27.986;2023-04-25T10:10:27;99125.19;;;17.65;70.10
10310;BME280;5200;43.236;27.986;2023-04-25T10:12:57;99134.41;;;17.76;70.38
10310;BME280;5200;43.236;27.986;2023-04-25T10:15:24;99131.75;;;17.96;70.38
10310;BME280;5200;43.236;27.986;2023-04-25T10:17:51;99129.66;;;18.25;69.56
10310;BME280;5200;43.236;27.986;2023-04-25T10:20:18;99116.91;;;18.40;69.52
10310;BME280;5200;43.236;27.986;2023-04-25T10:22:46;99120.13;;;18.55;69.03
10310;BME280;5200;43.236;27.986;2023-04-25T10:25:16;99118.78;;;18.91;68.05
10310;BME280;5200;43.236;27.986;2023-04-25T10:27:43;99114.91;;;19.19;67.00
10310;BME280;5200;43.236;27.986;2023-04-25T10:30:14;99119.53;;;19.62;64.61
10310;BME280;5200;43.236;27.986;2023-04-25T10:32:42;99123.34;;;19.98;62.79
10310;BME280;5200;43.236;27.986;2023-04-25T10:35:13;99113.13;;;20.32;61.68
10310;BME280;5200;43.236;27.986;2023-04-25T10:38:00;99119.53;;;20.67;60.08
10310;BME280;5200;43.236;27.986;2023-04-25T10:40:29;99104.69;;;20.83;57.30
10310;BME280;5200;43.236;27.986;2023-04-25T10:43:39;99108.09;;;20.60;58.14
10310;BME280;5200;43.236;27.986;2023-04-25T10:46:17;99106.59;;;20.64;58.00
10310;BME280;5200;43.236;27.986;2023-04-25T10:48:49;99105.06;;;20.57;58.41
10310;BME280;5200;43.236;27.986;2023-04-25T10:51:21;99098.72;;;20.51;58.04
10310;BME280;5200;43.236;27.986;2023-04-25T10:53:57;99108.31;;;20.40;57.25
10310;BME280;5200;43.236;27.986;2023-04-25T10:56:26;99109.41;;;20.14;58.44
10310;BME280;5200;43.236;27.986;2023-04-25T10:59:04;99108.19;;;19.92;59.18
10310;BME280;5200;43.236;27.986;2023-04-25T11:01:38;99109.88;;;19.61;59.45
10310;BME280;5200;43.236;27.986;2023-04-25T11:04:05;99103.94;;;19.59;60.80
10310;BME280;5200;43.236;27.986;2023-04-25T11:06:42;99104.88;;;19.46;61.59
10310;BME280;5200;43.236;27.986;2023-04-25T11:09:11;99112.78;;;19.59;62.56
10310;BME280;5200;43.236;27.986;2023-04-25T11:11:39;99108.00;;;19.68;62.09
10310;BME280;5200;43.236;27.986;2023-04-25T11:14:06;99103.53;;;19.62;62.07
10310;BME280;5200;43.236;27.986;2023-04-25T11:16:33;99105.13;;;19.70;61.76
10310;BME280;5200;43.236;27.986;2023-04-25T11:19:03;99097.44;;;19.55;62.16
10310;BME280;5200;43.236;27.986;2023-04-25T11:21:30;99103.06;;;19.72;62.15
10310;BME280;5200;43.236;27.986;2023-04-25T11:23:59;99096.66;;;19.73;61.71
10310;BME280;5200;43.236;27.986;2023-04-25T11:26:26;99113.78;;;19.90;61.69
10310;BME280;5200;43.236;27.986;2023-04-25T11:28:57;99112.69;;;20.16;60.24
10310;BME280;5200;43.236;27.986;2023-04-25T11:31:25;99107.19;;;20.11;58.84
10310;BME280;5200;43.236;27.986;2023-04-25T11:33:53;99103.75;;;19.85;59.10
10310;BME280;5200;43.236;27.986;2023-04-25T11:36:22;99105.69;;;19.47;60.07
10310;BME280;5200;43.236;27.986;2023-04-25T11:38:50;99101.75;;;19.24;60.98
10310;BME280;5200;43.236;27.986;2023-04-25T11:41:17;99098.69;;;19.20;59.53
10310;BME280;5200;43.236;27.986;2023-04-25T11:43:44;99097.94;;;19.13;60.77
10310;BME280;5200;43.236;27.986;2023-04-25T11:46:11;99095.56;;;19.30;60.84
10310;BME280;5200;43.236;27.986;2023-04-25T11:48:38;99096.72;;;19.41;60.13
10310;BME280;5200;43.236;27.986;2023-04-25T11:51:05;99085.56;;;19.51;59.04
10310;BME280;5200;43.236;27.986;2023-04-25T11:53:33;99092.47;;;19.58;57.19
10310;BME280;5200;43.236;27.986;2023-04-25T11:56:01;99091.69;;;19.51;56.49
10310;BME280;5200;43.236;27.986;2023-04-25T11:58:27;99091.44;;;19.59;56.36
10310;BME280;5200;43.236;27.986;2023-04-25T12:00:54;99084.97;;;19.74;54.43
10310;BME280;5200;43.236;27.986;2023-04-25T12:03:23;99081.31;;;19.68;53.25
10310;BME280;5200;43.236;27.986;2023-04-25T12:05:52;99081.31;;;19.68;52.18
10310;BME280;5200;43.236;27.986;2023-04-25T12:08:19;99057.25;;;19.50;52.27
10310;BME280;5200;43.236;27.986;2023-04-25T12:10:47;99067.59;;;19.39;52.71
10310;BME280;5200;43.236;27.986;2023-04-25T12:13:18;99057.34;;;19.36;54.14
10310;BME280;5200;43.236;27.986;2023-04-25T12:15:45;99054.13;;;19.28;53.87
10310;BME280;5200;43.236;27.986;2023-04-25T12:18:12;99054.63;;;19.18;55.14
10310;BME280;5200;43.236;27.986;2023-04-25T12:20:39;99055.91;;;19.09;55.62
10310;BME280;5200;43.236;27.986;2023-04-25T12:23:06;99061.22;;;19.15;56.03
10310;BME280;5200;43.236;27.986;2023-04-25T12:25:35;99045.56;;;19.19;56.51
10310;BME280;5200;43.236;27.986;2023-04-25T12:28:12;99045.44;;;19.39;55.87
10310;BME280;5200;43.236;27.986;2023-04-25T12:30:59;99051.34;;;19.16;55.73
10310;BME280;5200;43.236;27.986;2023-04-25T12:33:28;99040.31;;;18.80;57.47
10310;BME280;5200;43.236;27.986;2023-04-25T12:35:56;99035.94;;;18.54;58.81
10310;BME280;5200;43.236;27.986;2023-04-25T12:38:24;99033.94;;;18.43;59.35
10310;BME280;5200;43.236;27.986;2023-04-25T12:40:51;99024.00;;;18.25;60.12
10310;BME280;5200;43.236;27.986;2023-04-25T12:43:20;99031.22;;;18.11;61.70
10310;BME280;5200;43.236;27.986;2023-04-25T12:45:47;99026.91;;;18.04;64.42
10310;BME280;5200;43.236;27.986;2023-04-25T12:48:15;99009.75;;;17.80;66.18
10310;BME280;5200;43.236;27.986;2023-04-25T12:50:41;98990.78;;;17.56;66.63
10310;BME280;5200;43.236;27.986;2023-04-25T12:53:08;98999.19;;;17.40;68.40
10310;BME280;5200;43.236;27.986;2023-04-25T12:55:35;98985.28;;;17.38;70.02
10310;BME280;5200;43.236;27.986;2023-04-25T12:58:02;98983.88;;;17.42;70.85